Tye River, Virginia
Current Conditions -  °F | °C
As of 7:35 AM on Monday 26 Jan 2015 (Local Time) from KW13 Reporting Station
Overcast Overcast  
Wind Chill: 35°   Ceiling: 300
Heat Index: 35°   Visibility: 3mi
Dew Point: 34°   Wind: 0mph
Humidity: 97%   Direction: NA
Pressure: 29.68"   Gusts: NA
Location:  37.6956°N, 78.9097°W
Report Text: KW13 261235Z AUTO 00000KT 3SM BKN003 OVC007 02/01 A2968 RMK AO1 T00150011
Loading
Personal Weather Stations






























Interactive Weather Map New forecast layout! Learn more

10-Day Weather Forecast

Advertisements
Track Severe Weather on mobile